Equality — ODTX — position and weather

sailwx.info

Track history (hours):
 
Tides and Currents Weather Stations Pressure Air Temp Water Temp Dewpoint Dewpoint Depression Visibility Wind Speed Wind Dir Waves Ship Positions

Equality

Last reported at 2016-Jun-28 01:33 UTC. Time now 2016-Jun-28 05:59 UTC.
Position N 37°32' E 002°44'.

Length 124 m; draft 4.7 m.

Type: Cargo ship. MMSI: 450501000.

Date/timePositionNaut miles runAvg speedWind from/ knotsBaromVisibWave heightAir tempDewpointWater temp
2016-Jun-28 01:33N 37°32' E 002°44'1211.6
2016-Jun-28 00:33N 37°33' E 002°59'28511.4
2016-Jun-26 23:31N 37°38' E 008°58'1010.2
2016-Jun-26 22:32N 37°38' E 009°11'2110.5
2016-Jun-26 20:33N 37°38' E 009°37'1110.8
2016-Jun-26 19:32N 37°38' E 009°51'4411.0
2016-Jun-26 15:33N 37°33' E 010°46'3411.1
2016-Jun-26 12:27N 37°20' E 011°26'1010.7
2016-Jun-26 11:33N 37°15' E 011°36'1110.9
2016-Jun-26 10:32N 37°09' E 011°47'3210.7
2016-Jun-26 07:33N 36°49' E 012°19'1110.9
2016-Jun-26 06:33N 36°42' E 012°29'1110.9
2016-Jun-26 05:33N 36°33' E 012°38'1111.0
2016-Jun-26 04:33N 36°25' E 012°47'1111.0
2016-Jun-26 03:32N 36°17' E 012°56'2211.1
2016-Jun-26 01:33N 35°60' E 013°14'5711.2
2016-Jun-25 20:26N 35°17' E 014°00'1010.9
2016-Jun-25 19:31N 35°09' E 014°08'1111.0
2016-Jun-25 18:33N 35°01' E 014°16'1111.2
2016-Jun-25 17:33N 34°53' E 014°25'1111.0
2016-Jun-25 16:32N 34°44' E 014°34'1110.9
2016-Jun-25 15:33N 34°36' E 014°43'1111.0
2016-Jun-25 14:33N 34°27' E 014°51'1410.7
2016-Jun-25 13:16N 34°17' E 015°02'  
2016-Jun-22 19:33N 34°14' E 014°25'  
Track history (hours):
 
Tides and Currents Weather Stations Pressure Air Temp Water Temp Dewpoint Dewpoint Depression Visibility Wind Speed Wind Dir Waves Ship Positions

Equality

Last reported at 2016-Jun-28 01:33 UTC. Time now 2016-Jun-28 05:59 UTC.
Position N 37°32' E 002°44'.

Length 124 m; draft 4.7 m.

Type: Cargo ship. MMSI: 450501000.

Date/timePositionNaut miles runAvg speedWind from/ knotsBaromVisibWave heightAir tempDewpointWater temp
2016-Jun-28 01:33N 37°32' E 002°44'1211.6
2016-Jun-28 00:33N 37°33' E 002°59'28511.4
2016-Jun-26 23:31N 37°38' E 008°58'1010.2
2016-Jun-26 22:32N 37°38' E 009°11'2110.5
2016-Jun-26 20:33N 37°38' E 009°37'1110.8
2016-Jun-26 19:32N 37°38' E 009°51'4411.0
2016-Jun-26 15:33N 37°33' E 010°46'3411.1
2016-Jun-26 12:27N 37°20' E 011°26'1010.7
2016-Jun-26 11:33N 37°15' E 011°36'1110.9
2016-Jun-26 10:32N 37°09' E 011°47'3210.7
2016-Jun-26 07:33N 36°49' E 012°19'1110.9
2016-Jun-26 06:33N 36°42' E 012°29'1110.9
2016-Jun-26 05:33N 36°33' E 012°38'1111.0
2016-Jun-26 04:33N 36°25' E 012°47'1111.0
2016-Jun-26 03:32N 36°17' E 012°56'2211.1
2016-Jun-26 01:33N 35°60' E 013°14'5711.2
2016-Jun-25 20:26N 35°17' E 014°00'1010.9
2016-Jun-25 19:31N 35°09' E 014°08'1111.0
2016-Jun-25 18:33N 35°01' E 014°16'1111.2
2016-Jun-25 17:33N 34°53' E 014°25'1111.0
2016-Jun-25 16:32N 34°44' E 014°34'1110.9
2016-Jun-25 15:33N 34°36' E 014°43'1111.0
2016-Jun-25 14:33N 34°27' E 014°51'1410.7
2016-Jun-25 13:16N 34°17' E 015°02'  
2016-Jun-22 19:33N 34°14' E 014°25'  

Dump ship's entire track history